createdAt,value
2023-04-06T00:02:53.358Z,5.07
2023-04-06T00:07:57.139Z,5.13
2023-04-06T00:13:01.181Z,4.33
2023-04-06T00:18:04.481Z,5.00
2023-04-06T00:23:07.349Z,6.90
2023-04-06T00:28:09.950Z,6.70
2023-04-06T00:33:12.676Z,4.70
2023-04-06T00:38:16.960Z,5.77
2023-04-06T00:43:19.788Z,4.97
2023-04-06T00:48:22.488Z,5.73
2023-04-06T00:53:25.121Z,5.90
2023-04-06T00:58:29.152Z,7.50
2023-04-06T01:03:39.657Z,5.43
2023-04-06T01:08:43.319Z,6.20
2023-04-06T01:13:53.643Z,7.80
2023-04-06T01:19:11.000Z,7.43
2023-04-06T01:24:15.966Z,5.43
2023-04-06T01:29:34.090Z,5.30
2023-04-06T01:34:38.812Z,5.17
2023-04-06T01:39:44.520Z,5.73
2023-04-06T01:44:53.793Z,5.37
2023-04-06T01:49:56.582Z,5.93
2023-04-06T01:55:00.203Z,7.60
2023-04-06T02:00:25.054Z,4.63
2023-04-06T02:05:32.519Z,6.60
2023-04-06T02:10:36.478Z,6.27
2023-04-06T02:15:48.048Z,5.93
2023-04-06T02:20:50.771Z,5.83
2023-04-06T02:25:53.646Z,6.17
2023-04-06T02:30:56.369Z,4.70
2023-04-06T02:36:03.028Z,5.20
2023-04-06T02:41:06.217Z,5.47
2023-04-06T02:46:09.089Z,5.80
2023-04-06T02:51:14.892Z,6.77
2023-04-06T02:56:22.728Z,5.33
2023-04-06T03:01:28.349Z,7.57
2023-04-06T03:06:35.610Z,5.60
2023-04-06T03:11:49.117Z,5.93
2023-04-06T03:16:51.943Z,5.10
2023-04-06T03:21:57.947Z,5.53
2023-04-06T03:27:01.597Z,7.03
2023-04-06T03:32:05.525Z,6.03
2023-04-06T03:37:12.914Z,6.00
2023-04-06T03:42:23.101Z,5.27
2023-04-06T03:47:29.680Z,6.13
2023-04-06T03:52:37.674Z,7.00
2023-04-06T03:57:40.679Z,7.27
2023-04-06T04:02:43.304Z,7.10
2023-04-06T04:07:46.346Z,5.13
2023-04-06T04:12:49.425Z,7.10
2023-04-06T04:17:52.219Z,7.37
2023-04-06T04:22:54.906Z,6.07
2023-04-06T04:27:57.831Z,5.53
2023-04-06T04:33:01.324Z,5.80
2023-04-06T04:38:05.157Z,7.27
2023-04-06T04:43:09.929Z,6.13
2023-04-06T04:48:12.604Z,7.00
2023-04-06T04:53:26.345Z,9.70
2023-04-06T04:58:34.663Z,10.13
2023-04-06T05:03:40.170Z,7.53
2023-04-06T05:08:48.324Z,7.93
2023-04-06T05:13:52.026Z,8.50
2023-04-06T05:18:58.705Z,5.70
2023-04-06T05:24:08.445Z,5.83
2023-04-06T05:29:12.471Z,6.27
2023-04-06T05:34:17.160Z,9.17
2023-04-06T05:39:20.648Z,10.00
2023-04-06T05:44:28.157Z,6.00
2023-04-06T05:49:39.733Z,7.43
2023-04-06T05:54:48.432Z,6.50
2023-04-06T05:59:51.170Z,10.07
2023-04-06T06:04:55.686Z,7.77
2023-04-06T06:10:01.139Z,13.60
2023-04-06T06:15:08.806Z,8.73
2023-04-06T06:20:16.426Z,10.67
2023-04-06T06:25:22.518Z,10.37
2023-04-06T06:30:27.369Z,8.80
2023-04-06T06:35:30.231Z,9.93
2023-04-06T06:40:35.644Z,7.07
2023-04-06T06:45:39.574Z,9.07
2023-04-06T06:50:42.485Z,8.53
2023-04-06T06:55:45.854Z,7.83
2023-04-06T07:00:49.091Z,8.07
2023-04-06T07:05:55.482Z,8.63
2023-04-06T07:11:00.065Z,10.23
2023-04-06T07:16:02.760Z,10.83
2023-04-06T07:21:06.272Z,8.93
2023-04-06T07:26:08.962Z,9.03
2023-04-06T07:31:13.729Z,9.43
2023-04-06T07:36:16.937Z,8.97
2023-04-06T07:41:20.509Z,9.57
2023-04-06T07:46:23.813Z,8.53
2023-04-06T07:51:27.480Z,10.50
2023-04-06T07:56:30.569Z,8.40
2023-04-06T08:01:33.277Z,9.37
2023-04-06T08:06:37.512Z,9.87
2023-04-06T08:11:40.161Z,12.50
2023-04-06T08:16:43.068Z,9.33
2023-04-06T08:21:49.375Z,9.37
2023-04-06T08:26:52.577Z,8.80
2023-04-06T08:31:55.351Z,10.67
2023-04-06T08:37:01.348Z,9.87
2023-04-06T08:42:04.406Z,10.07
2023-04-06T08:47:07.939Z,10.23
2023-04-06T08:52:12.593Z,11.33
2023-04-06T08:57:16.778Z,11.60
2023-04-06T09:02:20.506Z,10.93
2023-04-06T09:07:23.414Z,8.83
2023-04-06T09:12:30.618Z,9.33
2023-04-06T09:17:34.890Z,9.20
2023-04-06T09:22:42.536Z,8.57
2023-04-06T09:27:45.684Z,8.97
2023-04-06T09:32:53.207Z,8.27
2023-04-06T09:37:56.581Z,9.33
2023-04-06T09:43:00.589Z,10.70
2023-04-06T09:48:04.891Z,8.70
2023-04-06T09:53:09.102Z,6.17
2023-04-06T09:58:27.598Z,9.03
2023-04-06T10:03:52.352Z,8.07
2023-04-06T10:08:57.549Z,7.47
2023-04-06T10:14:00.813Z,7.77
2023-04-06T10:19:22.929Z,7.53
2023-04-06T10:24:26.215Z,7.10
2023-04-06T10:29:29.237Z,7.63
2023-04-06T10:34:37.053Z,7.37
2023-04-06T10:39:49.367Z,6.80
2023-04-06T10:44:52.122Z,7.50
2023-04-06T10:49:54.742Z,6.90
2023-04-06T10:54:58.133Z,6.77
2023-04-06T11:00:00.719Z,8.03
2023-04-06T11:05:03.718Z,6.70
2023-04-06T11:10:16.717Z,8.70
2023-04-06T11:15:21.763Z,6.50
2023-04-06T11:20:24.521Z,7.70
2023-04-06T11:25:28.876Z,7.23
2023-04-06T11:30:31.580Z,6.13
2023-04-06T11:35:35.781Z,6.13
2023-04-06T11:40:38.412Z,6.80
2023-04-06T11:45:44.667Z,6.73
2023-04-06T11:50:56.143Z,6.20
2023-04-06T11:55:59.042Z,5.80
2023-04-06T12:01:07.645Z,7.07
2023-04-06T12:06:10.387Z,6.37
2023-04-06T12:11:13.856Z,6.50
2023-04-06T12:16:17.164Z,6.43
2023-04-06T12:21:20.061Z,6.80
2023-04-06T12:26:26.746Z,6.93
2023-04-06T12:31:29.486Z,6.10
2023-04-06T12:36:32.659Z,5.57
2023-04-06T12:41:35.621Z,5.83
2023-04-06T12:46:38.270Z,5.47
2023-04-06T12:51:40.922Z,5.87
2023-04-06T12:56:43.698Z,6.30
2023-04-06T13:01:46.847Z,4.20
2023-04-06T13:06:50.473Z,5.67
2023-04-06T13:11:53.181Z,6.03
2023-04-06T13:16:55.953Z,5.40
2023-04-06T13:21:58.663Z,7.13
2023-04-06T13:27:01.901Z,5.43
2023-04-06T13:32:04.733Z,7.13
2023-04-06T13:37:07.481Z,6.47
2023-04-06T13:42:11.186Z,5.67
2023-04-06T13:47:14.221Z,8.73
2023-04-06T13:52:17.371Z,5.73
2023-04-06T13:57:20.297Z,5.70
2023-04-06T14:02:28.545Z,8.17
2023-04-06T14:07:31.628Z,6.07
2023-04-06T14:12:34.247Z,5.50
2023-04-06T14:17:36.841Z,8.50
2023-04-06T14:22:39.446Z,6.30
2023-04-06T14:27:42.072Z,6.57
2023-04-06T14:32:44.678Z,6.37
2023-04-06T14:37:48.511Z,9.80
2023-04-06T14:42:53.960Z,5.37
2023-04-06T14:47:56.585Z,5.93
2023-04-06T14:52:59.345Z,6.20
2023-04-06T14:58:01.930Z,5.47
2023-04-06T15:03:05.085Z,8.23
2023-04-06T15:08:07.896Z,5.70
2023-04-06T15:13:10.493Z,5.93
2023-04-06T15:18:14.890Z,5.77
2023-04-06T15:23:17.881Z,5.50
2023-04-06T15:28:20.856Z,5.77
2023-04-06T15:33:23.396Z,5.60
2023-04-06T15:38:25.951Z,3.70
2023-04-06T15:43:28.683Z,4.83
2023-04-06T15:48:32.154Z,6.20
2023-04-06T15:53:36.306Z,5.70
2023-04-06T15:58:40.657Z,4.07
2023-04-06T16:03:43.942Z,3.40
2023-04-06T16:08:47.333Z,5.70
2023-04-06T16:13:55.235Z,7.20
2023-04-06T16:18:58.078Z,6.30
2023-04-06T16:24:01.011Z,5.70
2023-04-06T16:29:03.968Z,7.07
2023-04-06T16:34:07.292Z,6.57
2023-04-06T16:39:10.264Z,5.60
2023-04-06T16:44:13.263Z,6.17
2023-04-06T16:49:17.743Z,8.57
2023-04-06T16:54:20.609Z,11.53
2023-04-06T16:59:23.453Z,322.53
2023-04-06T17:04:26.172Z,332.77
2023-04-06T17:09:28.787Z,8.17
2023-04-06T17:14:31.483Z,6.70
2023-04-06T17:19:34.026Z,5.37
2023-04-06T17:24:36.600Z,7.10
2023-04-06T17:29:39.218Z,4.20
2023-04-06T17:34:41.741Z,7.10
2023-04-06T17:39:44.691Z,4.50
2023-04-06T17:44:52.411Z,6.67
2023-04-06T17:49:55.621Z,7.43
2023-04-06T17:54:58.340Z,4.03
2023-04-06T18:00:00.899Z,5.07
2023-04-06T18:05:03.840Z,9.07
2023-04-06T18:10:07.177Z,5.67
2023-04-06T18:15:09.915Z,5.17
2023-04-06T18:20:14.270Z,5.13
2023-04-06T18:25:19.017Z,252.80
2023-04-06T18:30:21.764Z,5.83
2023-04-06T18:35:24.408Z,7.33
2023-04-06T18:40:40.556Z,7.53
2023-04-06T18:45:46.195Z,6.13
2023-04-06T18:51:00.130Z,6.00
2023-04-06T18:56:03.826Z,5.47
2023-04-06T19:01:06.958Z,7.20
2023-04-06T19:06:09.470Z,6.40
2023-04-06T19:11:12.170Z,6.03
2023-04-06T19:16:14.692Z,6.27
2023-04-06T19:21:21.705Z,8.20
2023-04-06T19:26:28.062Z,5.60
2023-04-06T19:31:30.862Z,4.53
2023-04-06T19:36:33.598Z,5.53
2023-04-06T19:41:36.527Z,4.97
2023-04-06T19:46:39.218Z,4.87
2023-04-06T19:51:41.799Z,3.13
2023-04-06T19:56:44.447Z,2.00
2023-04-06T20:01:47.372Z,1.97
2023-04-06T20:06:51.338Z,1.90
2023-04-06T20:11:54.574Z,2.37
2023-04-06T20:16:57.427Z,2.13
2023-04-06T20:22:03.345Z,3.47
2023-04-06T20:27:06.401Z,295.70
2023-04-06T20:32:10.112Z,2.73
2023-04-06T20:37:12.857Z,4.17
2023-04-06T20:42:15.459Z,3.43
2023-04-06T20:47:18.447Z,3.33
2023-04-06T20:52:21.459Z,3.37
2023-04-06T20:57:25.806Z,4.33
2023-04-06T21:02:28.739Z,290.33
2023-04-06T21:07:31.607Z,291.50
2023-04-06T21:12:34.146Z,3.37
2023-04-06T21:17:36.964Z,4.43
2023-04-06T21:22:39.732Z,3.70
2023-04-06T21:27:42.288Z,221.53
2023-04-06T21:32:45.069Z,221.00
2023-04-06T21:37:48.103Z,221.47
2023-04-06T21:42:51.079Z,231.63
2023-04-06T21:47:53.963Z,261.03
2023-04-06T21:52:56.584Z,279.40
2023-04-06T21:57:59.363Z,288.17
2023-04-06T22:03:02.272Z,285.23
2023-04-06T22:08:05.175Z,282.17
2023-04-06T22:13:07.813Z,273.50
2023-04-06T22:18:10.526Z,231.30
2023-04-06T22:23:13.332Z,224.40
2023-04-06T22:28:15.974Z,219.77
2023-04-06T22:33:19.173Z,223.63
2023-04-06T22:38:21.849Z,231.00
2023-04-06T22:43:24.388Z,262.50
2023-04-06T22:48:27.008Z,277.93
2023-04-06T22:53:29.569Z,274.80
2023-04-06T22:58:32.088Z,279.23
2023-04-06T23:03:34.889Z,273.63
2023-04-06T23:08:37.472Z,277.33
2023-04-06T23:13:40.756Z,246.30
2023-04-06T23:18:43.296Z,213.97
2023-04-06T23:23:46.248Z,227.33
2023-04-06T23:28:49.140Z,211.10
2023-04-06T23:33:51.847Z,228.10
2023-04-06T23:38:54.548Z,259.50
2023-04-06T23:43:57.239Z,268.73
2023-04-06T23:48:59.921Z,271.97
2023-04-06T23:54:02.541Z,268.70
2023-04-06T23:59:07.626Z,268.30
